Time;durP1;ratioP1;P1;durP2;ratioP2;P2;SDS_P1;SDS_P2;PMS_P1;PMS_P2;Temp;Humidity;BMP_temperature;BMP_pressure;BME280_temperature;BME280_humidity;BME280_pressure;Samples;Min_cycle;Max_cycle;Signal;HPM_P1;HPM_P2
2022/08/20 00:01:09;;;;;;;3.88;1.20;;;;;;;15.62;72.72;100687.69;5049633;28;20513;-49
2022/08/20 00:03:39;;;;;;;5.85;1.13;;;;;;;15.63;72.73;100678.16;5048324;28;20044;-42
2022/08/20 00:06:17;;;;;;;6.95;1.48;;;;;;;15.64;72.80;100678.97;5049053;28;20060;-41
2022/08/20 00:08:45;;;;;;;3.35;1.10;;;;;;;15.61;72.97;100674.13;5049434;28;20041;-42
2022/08/20 00:11:17;;;;;;;7.43;1.45;;;;;;;15.61;72.94;100674.94;5049437;28;20045;-42
2022/08/20 00:13:51;;;;;;;5.18;1.45;;;;;;;15.60;72.92;100673.34;5049641;28;20491;-41
2022/08/20 00:16:21;;;;;;;7.35;1.38;;;;;;;15.60;73.06;100667.75;5030163;28;20158;-42
2022/08/20 00:18:49;;;;;;;9.18;1.80;;;;;;;15.61;73.25;100668.56;5049141;28;20053;-43
2022/08/20 00:21:18;;;;;;;5.15;1.08;;;;;;;15.63;73.14;100666.19;5048910;28;20483;-42
2022/08/20 00:23:48;;;;;;;13.10;1.60;;;;;;;15.64;73.27;100665.81;5048947;28;20475;-42
2022/08/20 00:26:15;;;;;;;14.10;3.22;;;;;;;15.67;73.18;100662.25;5049469;28;20152;-42
2022/08/20 00:28:42;;;;;;;3.92;1.02;;;;;;;15.68;73.07;100652.69;5049092;28;20037;-41
2022/08/20 00:31:16;;;;;;;5.97;1.75;;;;;;;15.70;73.38;100652.34;5048498;28;20049;-51
2022/08/20 00:33:44;;;;;;;7.40;1.20;;;;;;;15.70;73.20;100650.31;5047286;28;20388;-42
2022/08/20 00:36:14;;;;;;;10.30;3.00;;;;;;;15.67;73.34;100651.06;5047239;28;20617;-42
2022/08/20 00:38:43;;;;;;;6.07;2.42;;;;;;;15.66;73.27;100648.69;5046130;28;20045;-43
2022/08/20 00:41:13;;;;;;;5.50;2.10;;;;;;;15.63;73.24;100650.25;5047616;28;20140;-47
2022/08/20 00:43:49;;;;;;;5.70;1.73;;;;;;;15.60;73.51;100650.19;5046950;28;20080;-42
2022/08/20 00:46:26;;;;;;;11.75;2.08;;;;;;;15.58;73.62;100638.63;5047046;28;20110;-43
2022/08/20 00:48:58;;;;;;;10.45;2.08;;;;;;;15.56;73.57;100638.22;5041873;28;20048;-42
2022/08/20 00:51:33;;;;;;;7.75;3.53;;;;;;;15.52;73.92;100649.31;5046650;28;20041;-41
2022/08/20 00:54:09;;;;;;;4.50;1.52;;;;;;;15.51;74.06;100647.72;5045008;28;20446;-42
2022/08/20 00:56:37;;;;;;;8.00;1.88;;;;;;;15.50;74.15;100645.31;5040677;28;20319;-41
2022/08/20 00:59:11;;;;;;;7.32;1.40;;;;;;;15.49;74.32;100632.56;5047039;28;20048;-42
2022/08/20 01:01:41;;;;;;;4.13;2.13;;;;;;;15.50;74.32;100634.13;5045647;28;20675;-42
2022/08/20 01:04:23;;;;;;;12.80;2.30;;;;;;;15.49;74.30;100626.97;5045444;28;20072;-42
2022/08/20 01:06:51;;;;;;;7.00;2.00;;;;;;;15.49;74.39;100622.16;5042608;28;20182;-44
2022/08/20 01:09:18;;;;;;;14.45;3.13;;;;;;;15.49;74.58;100615.81;5047163;28;20465;-42
2022/08/20 01:12:06;;;;;;;7.97;1.85;;;;;;;15.51;74.38;100605.06;5044811;28;20513;-42
2022/08/20 01:17:06;;;;;;;8.73;1.67;;;;;;;15.51;74.51;100591.13;5044455;28;20103;-42
2022/08/20 01:19:48;;;;;;;3.60;1.30;;;;;;;15.51;74.69;100607.84;5046440;28;20049;-42
2022/08/20 01:25:19;;;;;;;6.82;2.10;;;;;;;15.51;74.92;100608.66;5044437;28;20056;-42
2022/08/20 01:27:48;;;;;;;2.90;1.70;;;;;;;15.49;74.77;100599.84;5046964;28;20402;-42
2022/08/20 01:30:26;;;;;;;4.03;1.35;;;;;;;15.49;74.67;100599.06;5042701;28;20053;-42
2022/08/20 01:32:53;;;;;;;5.57;1.40;;;;;;;15.50;74.93;100600.66;5045391;28;20052;-41
2022/08/20 01:35:23;;;;;;;8.40;2.92;;;;;;;15.51;74.85;100600.28;5046531;28;20135;-42
2022/08/20 01:37:49;;;;;;;2.97;1.10;;;;;;;15.55;74.88;100608.69;5045746;28;20053;-41
2022/08/20 01:40:40;;;;;;;8.00;1.38;;;;;;;15.58;74.99;100611.53;5040453;28;20449;-42
2022/08/20 01:43:08;;;;;;;6.57;1.65;;;;;;;15.63;74.90;100604.78;5042461;28;20040;-42
2022/08/20 01:45:35;;;;;;;7.47;1.95;;;;;;;15.69;74.72;100604.06;5045344;28;20045;-41
2022/08/20 01:48:05;;;;;;;5.20;1.65;;;;;;;15.73;74.70;100604.91;5046865;28;20041;-42
2022/08/20 01:50:35;;;;;;;4.82;1.42;;;;;;;15.77;74.66;100599.34;5046483;28;20450;-42
2022/08/20 01:53:15;;;;;;;6.20;2.25;;;;;;;15.79;74.68;100597.78;5043464;28;20036;-42
2022/08/20 01:55:42;;;;;;;4.00;1.15;;;;;;;15.81;74.82;100586.22;5028055;28;20349;-42
2022/08/20 01:58:09;;;;;;;5.10;1.52;;;;;;;15.83;74.64;100592.25;5034559;28;20045;-42
2022/08/20 02:00:36;;;;;;;4.32;1.38;;;;;;;15.83;74.97;100593.03;5026527;28;20120;-45
2022/08/20 02:03:03;;;;;;;7.25;1.70;;;;;;;15.84;74.66;100589.06;5046128;28;20398;-42
2022/08/20 02:05:32;;;;;;;10.98;1.70;;;;;;;15.84;74.80;100596.63;5043879;28;20063;-46
2022/08/20 02:08:00;;;;;;;6.80;1.73;;;;;;;15.84;74.73;100594.66;5047089;28;20052;-42
2022/08/20 02:10:30;;;;;;;6.38;0.98;;;;;;;15.87;74.80;100593.06;5045632;28;20148;-42
2022/08/20 02:12:59;;;;;;;4.03;1.63;;;;;;;15.87;74.76;100595.88;5044484;28;20041;-41
2022/08/20 02:15:26;;;;;;;4.75;1.63;;;;;;;15.86;74.88;100591.47;5036435;28;20045;-42
2022/08/20 02:18:05;;;;;;;5.05;1.17;;;;;;;15.86;74.84;100580.28;5045612;28;20164;-42
2022/08/20 02:20:34;;;;;;;8.35;1.58;;;;;;;15.86;74.88;100588.66;5043256;28;20094;-42
2022/08/20 02:23:02;;;;;;;4.13;1.80;;;;;;;15.87;74.79;100584.69;5045747;28;20098;-41
2022/08/20 02:25:32;;;;;;;6.22;2.28;;;;;;;15.88;75.08;100586.31;5046230;28;20045;-42
2022/08/20 02:28:05;;;;;;;5.18;1.45;;;;;;;15.89;74.95;100576.72;5046438;28;20082;-43
2022/08/20 02:30:36;;;;;;;11.82;1.50;;;;;;;15.91;74.95;100565.19;5040297;28;20095;-43
2022/08/20 02:33:06;;;;;;;6.03;1.48;;;;;;;15.90;75.06;100575.56;5043605;28;20430;-42
2022/08/20 02:35:34;;;;;;;5.00;1.15;;;;;;;15.89;74.98;100575.91;5028592;28;20049;-41
2022/08/20 02:38:03;;;;;;;9.80;1.67;;;;;;;15.91;74.95;100570.78;5028367;28;20045;-42
2022/08/20 02:40:31;;;;;;;5.72;1.55;;;;;;;15.91;75.00;100568.00;5045278;28;20044;-42
2022/08/20 02:43:00;;;;;;;4.55;1.42;;;;;;;15.91;75.02;100570.78;5045454;28;20049;-43
2022/08/20 02:45:29;;;;;;;6.32;1.40;;;;;;;15.91;75.03;100556.81;5045079;28;20143;-43
2022/08/20 02:47:57;;;;;;;1.50;1.10;;;;;;;15.90;75.17;100569.97;5045763;28;20445;-43
2022/08/20 02:50:25;;;;;;;5.25;0.82;;;;;;;15.92;75.16;100561.19;5044236;28;20396;-43
2022/08/20 02:52:52;;;;;;;4.25;1.23;;;;;;;15.91;75.15;100557.63;5046004;28;20053;-48
2022/08/20 02:55:19;;;;;;;3.75;1.60;;;;;;;15.89;75.22;100546.03;5046436;28;20045;-42
2022/08/20 02:57:56;;;;;;;5.78;1.30;;;;;;;15.87;75.45;100556.78;5044134;28;20048;-41
2022/08/20 03:02:52;;;;;;;7.93;1.45;;;;;;;15.81;75.53;100552.72;4862557;22;20399;-45
2022/08/20 03:05:19;;;;;;;4.07;1.50;;;;;;;15.76;75.89;100553.88;5017946;28;20458;-49
2022/08/20 03:07:50;;;;;;;5.05;0.98;;;;;;;15.73;76.17;100554.66;5025605;28;20517;-47
2022/08/20 03:10:17;;;;;;;6.05;2.22;;;;;;;15.76;76.05;100547.50;5025718;28;20136;-43
2022/08/20 03:12:45;;;;;;;8.35;1.73;;;;;;;15.75;76.28;100541.09;5027335;28;20045;-45
2022/08/20 03:15:14;;;;;;;7.20;2.10;;;;;;;15.74;76.21;100544.28;5027005;28;20557;-43
2022/08/20 03:17:44;;;;;;;5.45;1.65;;;;;;;15.73;76.36;100534.31;5026614;28;20050;-43
2022/08/20 03:20:13;;;;;;;5.85;2.22;;;;;;;15.72;76.27;100533.53;5029522;28;20402;-43
2022/08/20 03:22:39;;;;;;;6.07;1.95;;;;;;;15.70;76.18;100526.72;5028192;28;20464;-46
2022/08/20 03:25:06;;;;;;;7.80;2.03;;;;;;;15.66;76.29;100523.91;5029744;28;20506;-43
2022/08/20 03:27:33;;;;;;;5.70;1.88;;;;;;;15.66;76.04;100525.88;5029410;28;20053;-43
2022/08/20 03:30:05;;;;;;;16.55;3.08;;;;;;;15.64;76.17;100522.69;5028141;28;20041;-43
2022/08/20 03:32:36;;;;;;;8.15;2.88;;;;;;;15.64;76.09;100525.47;5025651;28;20145;-48
2022/08/20 03:35:05;;;;;;;10.50;2.63;;;;;;;15.64;75.99;100525.47;5020405;28;20479;-44
2022/08/20 03:37:33;;;;;;;4.75;1.73;;;;;;;15.64;75.94;100522.69;5028096;28;20435;-43
2022/08/20 03:40:03;;;;;;;6.32;3.75;;;;;;;15.64;75.96;100522.69;5024658;28;20491;-47
2022/08/20 03:42:31;;;;;;;5.72;1.75;;;;;;;15.65;75.91;100525.06;5024211;28;20071;-43
2022/08/20 03:44:59;;;;;;;11.65;2.28;;;;;;;15.67;75.86;100528.28;5029262;28;20053;-44
2022/08/20 03:47:26;;;;;;;7.50;2.17;;;;;;;15.68;75.92;100529.09;5027481;28;20136;-45
2022/08/20 03:50:00;;;;;;;10.05;2.58;;;;;;;15.67;75.97;100525.47;5027558;28;20088;-44
2022/08/20 03:52:28;;;;;;;10.15;2.10;;;;;;;15.66;75.83;100525.88;5025482;28;20503;-51
2022/08/20 03:54:55;;;;;;;9.52;2.15;;;;;;;15.63;75.72;100516.28;5029163;28;20053;-43
2022/08/20 03:57:23;;;;;;;8.50;2.05;;;;;;;15.62;75.69;100519.47;5025698;28;20056;-51
2022/08/20 03:59:50;;;;;;;8.80;2.40;;;;;;;15.62;75.74;100525.84;5025054;28;20061;-43
2022/08/20 04:02:26;;;;;;;11.55;2.28;;;;;;;15.63;75.69;100509.91;5025334;28;20150;-44
2022/08/20 04:04:54;;;;;;;7.28;2.20;;;;;;;15.61;75.75;100507.50;5026749;28;20125;-43
2022/08/20 04:07:24;;;;;;;9.70;3.03;;;;;;;15.62;75.66;100514.69;5023482;28;20037;-43
2022/08/20 04:09:53;;;;;;;10.02;2.28;;;;;;;15.59;75.53;100509.09;5027109;28;20068;-44
2022/08/20 04:12:23;;;;;;;10.27;2.50;;;;;;;15.56;75.66;100504.25;5007141;28;20458;-43
2022/08/20 04:14:50;;;;;;;6.60;2.13;;;;;;;15.55;75.50;100497.88;5025932;28;20045;-43
2022/08/20 04:17:18;;;;;;;10.90;2.17;;;;;;;15.53;75.51;100505.84;5027820;28;20049;-47
2022/08/20 04:19:47;;;;;;;8.73;2.40;;;;;;;15.52;75.39;100503.41;5025528;28;20045;-43
2022/08/20 04:22:15;;;;;;;7.20;2.30;;;;;;;15.49;75.38;100505.00;5025930;28;20521;-43
2022/08/20 04:24:42;;;;;;;7.78;2.15;;;;;;;15.49;75.38;100509.78;5026363;28;20099;-45
2022/08/20 04:27:09;;;;;;;11.27;2.00;;;;;;;15.47;75.39;100515.72;5029019;28;20033;-44
2022/08/20 04:29:41;;;;;;;11.43;3.33;;;;;;;15.43;75.64;100500.13;5023774;28;20076;-45
2022/08/20 04:32:08;;;;;;;8.82;2.20;;;;;;;15.40;75.55;100500.88;5024687;28;20037;-43
2022/08/20 04:34:35;;;;;;;7.68;2.20;;;;;;;15.38;75.39;100508.84;5025473;28;20050;-44
2022/08/20 04:37:03;;;;;;;7.47;2.47;;;;;;;15.37;75.45;100507.22;5026723;28;20048;-49
2022/08/20 04:39:30;;;;;;;11.32;2.80;;;;;;;15.36;75.60;100511.19;5028253;28;20045;-50
2022/08/20 04:41:57;;;;;;;9.95;2.20;;;;;;;15.36;75.47;100513.97;5029087;28;20076;-45
2022/08/20 04:44:23;;;;;;;9.20;2.40;;;;;;;15.35;75.33;100521.56;5005096;28;20107;-50
2022/08/20 04:46:50;;;;;;;10.43;2.75;;;;;;;15.34;75.43;100531.13;5022839;28;20081;-46
2022/08/20 04:49:19;;;;;;;8.55;2.35;;;;;;;15.33;75.52;100528.72;5023347;28;20038;-46
2022/08/20 04:51:47;;;;;;;10.98;3.28;;;;;;;15.32;75.43;100529.91;5027502;28;20528;-44
2022/08/20 04:54:13;;;;;;;10.18;2.60;;;;;;;15.32;75.39;100529.91;5028152;28;20077;-43
2022/08/20 04:56:40;;;;;;;16.02;2.53;;;;;;;15.30;75.46;100533.06;5028484;28;20076;-44
2022/08/20 04:59:07;;;;;;;14.43;3.50;;;;;;;15.32;75.35;100529.91;5026948;28;20049;-43
2022/08/20 05:01:34;;;;;;;8.50;2.17;;;;;;;15.30;75.45;100532.28;5007333;28;20084;-45
2022/08/20 05:04:01;;;;;;;7.28;2.08;;;;;;;15.28;75.42;100529.84;5023311;28;20049;-44
2022/08/20 05:06:30;;;;;;;12.85;2.92;;;;;;;15.28;75.65;100546.59;5025552;28;20052;-43
2022/08/20 05:08:59;;;;;;;9.95;2.15;;;;;;;15.25;75.63;100527.81;5024857;28;20450;-43
2022/08/20 05:11:27;;;;;;;11.68;3.53;;;;;;;15.23;75.65;100533.78;5027785;28;20088;-46
2022/08/20 05:14:01;;;;;;;8.75;2.17;;;;;;;15.23;75.56;100531.00;5026120;28;20029;-44
2022/08/20 05:16:28;;;;;;;9.95;2.55;;;;;;;15.20;75.80;100542.91;5009271;28;20060;-47
2022/08/20 05:18:55;;;;;;;17.08;2.67;;;;;;;15.19;75.80;100538.53;5026293;28;20045;-43
2022/08/20 05:21:21;;;;;;;8.55;2.08;;;;;;;15.19;75.62;100541.31;5022873;28;20064;-44
2022/08/20 05:23:48;;;;;;;7.88;2.35;;;;;;;15.20;75.74;100542.09;5025602;28;20033;-46
2022/08/20 05:26:17;;;;;;;9.00;2.53;;;;;;;15.20;75.68;100534.53;5026841;28;20052;-44
2022/08/20 05:28:44;;;;;;;9.73;2.35;;;;;;;15.21;75.92;100541.75;5026136;28;20103;-45
2022/08/20 05:31:28;;;;;;;9.13;2.90;;;;;;;15.22;75.85;100548.91;5022221;28;20045;-44
2022/08/20 05:34:16;;;;;;;10.98;2.90;;;;;;;15.25;75.91;100545.34;5025199;28;20053;-42
2022/08/20 05:36:46;;;;;;;11.00;2.25;;;;;;;15.23;75.85;100553.31;5018292;28;20183;-45
2022/08/20 05:39:15;;;;;;;10.18;3.08;;;;;;;15.24;76.09;100549.34;5005357;28;20084;-44
2022/08/20 05:41:42;;;;;;;15.00;2.95;;;;;;;15.25;76.05;100550.13;5023820;28;20498;-43
2022/08/20 05:44:12;;;;;;;11.50;2.55;;;;;;;15.27;75.91;100554.13;5025455;28;20445;-43
2022/08/20 05:46:40;;;;;;;9.85;2.20;;;;;;;15.31;76.01;100545.00;5022736;28;20120;-43
2022/08/20 05:49:09;;;;;;;11.15;2.70;;;;;;;15.31;75.86;100547.81;5027218;28;20549;-43
2022/08/20 05:51:36;;;;;;;16.27;2.85;;;;;;;15.33;76.14;100557.41;5024972;28;20533;-44
2022/08/20 05:54:04;;;;;;;11.45;3.47;;;;;;;15.35;75.93;100552.25;5023604;28;20391;-44
2022/08/20 05:56:32;;;;;;;10.05;2.63;;;;;;;15.37;75.88;100551.88;5016019;28;20199;-52
2022/08/20 05:59:03;;;;;;;11.75;2.78;;;;;;;15.37;76.00;100546.28;5026909;28;20100;-43
2022/08/20 06:01:32;;;;;;;14.88;5.05;;;;;;;15.38;75.74;100543.09;5021951;28;20165;-45
2022/08/20 06:06:46;;;;;;;9.70;2.78;;;;;;;15.44;75.92;100543.56;5025251;28;20049;-43
2022/08/20 06:09:18;;;;;;;9.65;2.53;;;;;;;15.47;75.82;100557.59;5024172;28;20059;-46
2022/08/20 06:12:02;;;;;;;13.02;3.45;;;;;;;15.51;75.82;100558.44;5023031;28;20095;-43
2022/08/20 06:14:30;;;;;;;10.07;2.33;;;;;;;15.54;75.83;100556.88;5023854;28;20037;-46
2022/08/20 06:17:05;;;;;;;9.85;2.55;;;;;;;15.54;75.78;100554.84;5019484;28;20563;-45
2022/08/20 06:19:34;;;;;;;15.70;3.10;;;;;;;15.54;75.82;100552.06;5025164;28;20296;-44
2022/08/20 06:22:02;;;;;;;12.60;2.47;;;;;;;15.56;75.75;100551.69;5023975;28;20053;-48
2022/08/20 06:24:43;;;;;;;12.82;2.83;;;;;;;15.58;75.87;100563.28;5023496;28;20191;-43
2022/08/20 06:27:14;;;;;;;14.02;2.55;;;;;;;15.61;75.82;100559.72;5024681;28;20050;-45
2022/08/20 06:29:41;;;;;;;12.02;3.03;;;;;;;15.64;75.78;100561.75;5020901;28;20501;-47
2022/08/20 06:32:08;;;;;;;12.25;2.58;;;;;;;15.65;75.55;100552.97;5022913;28;20522;-45
2022/08/20 06:34:35;;;;;;;12.25;2.63;;;;;;;15.67;75.56;100549.81;5024623;28;20103;-45
2022/08/20 06:37:13;;;;;;;12.60;2.22;;;;;;;15.70;75.49;100547.03;5016774;28;20042;-51
2022/08/20 06:39:40;;;;;;;9.20;2.42;;;;;;;15.71;75.50;100548.66;5026841;28;20046;-47
2022/08/20 06:42:07;;;;;;;10.85;3.00;;;;;;;15.74;75.41;100549.88;5027053;28;20045;-47
2022/08/20 06:44:35;;;;;;;8.52;2.97;;;;;;;15.76;75.27;100548.31;5026206;28;20041;-44
2022/08/20 06:47:03;;;;;;;10.05;2.70;;;;;;;15.79;75.21;100535.56;5028022;28;20383;-44
2022/08/20 06:49:34;;;;;;;14.30;2.60;;;;;;;15.80;75.13;100542.75;5030835;28;20095;-44
2022/08/20 06:52:03;;;;;;;14.40;3.58;;;;;;;15.83;75.13;100553.94;5031256;28;20053;-44
2022/08/20 06:54:33;;;;;;;10.82;2.38;;;;;;;15.84;74.86;100546.38;5029882;28;20545;-44
2022/08/20 06:57:01;;;;;;;10.15;3.00;;;;;;;15.84;75.20;100543.59;5030596;28;20048;-47
2022/08/20 06:59:28;;;;;;;10.20;3.08;;;;;;;15.86;74.86;100541.19;5030883;28;20041;-44
2022/08/20 07:01:55;;;;;;;12.10;4.20;;;;;;;15.86;74.76;100549.56;5029237;28;20510;-44
2022/08/20 07:04:24;;;;;;;16.45;3.83;;;;;;;15.84;74.94;100538.81;5026827;28;20087;-44
2022/08/20 07:06:52;;;;;;;11.43;2.53;;;;;;;15.85;74.76;100534.03;5025453;28;20045;-43
2022/08/20 07:09:20;;;;;;;8.90;2.80;;;;;;;15.83;74.78;100540.00;5011110;28;20111;-44
2022/08/20 07:11:48;;;;;;;9.02;2.55;;;;;;;15.84;74.71;100535.22;5001913;28;20034;-44
2022/08/20 07:14:17;;;;;;;10.68;2.67;;;;;;;15.85;74.81;100545.19;5021419;28;20075;-47
2022/08/20 07:16:46;;;;;;;7.78;3.50;;;;;;;15.84;74.86;100543.59;5013676;28;20048;-43
2022/08/20 07:19:13;;;;;;;8.13;2.40;;;;;;;15.84;74.87;100551.97;5031553;28;20472;-43
2022/08/20 07:21:41;;;;;;;10.52;2.97;;;;;;;15.89;74.62;100540.44;5031215;28;20057;-44
2022/08/20 07:24:08;;;;;;;11.52;2.60;;;;;;;15.94;74.65;100545.66;5031791;28;20759;-43
2022/08/20 07:26:35;;;;;;;12.60;2.90;;;;;;;15.97;74.74;100542.09;5030680;28;20449;-43
2022/08/20 07:29:02;;;;;;;14.95;3.38;;;;;;;16.01;74.59;100542.13;5028131;28;20096;-44
2022/08/20 07:34:15;;;;;;;10.52;2.80;;;;;;;16.09;74.43;100536.22;5024218;28;20559;-45
2022/08/20 07:36:47;;;;;;;15.68;4.32;;;;;;;16.17;74.25;100539.88;5028012;28;20075;-42
2022/08/20 07:39:14;;;;;;;13.75;3.40;;;;;;;16.19;74.04;100537.50;5031466;28;20068;-43
2022/08/20 07:41:42;;;;;;;16.00;2.83;;;;;;;16.15;73.92;100540.25;5031223;28;20049;-44
2022/08/20 07:44:16;;;;;;;16.35;3.40;;;;;;;16.11;73.82;100541.41;5030613;28;20072;-47
2022/08/20 07:46:44;;;;;;;7.13;2.83;;;;;;;16.08;73.90;100533.81;5031221;28;20056;-45
2022/08/20 07:49:10;;;;;;;14.77;2.92;;;;;;;16.03;74.01;100534.97;5031376;28;20099;-41
2022/08/20 07:51:39;;;;;;;14.55;3.67;;;;;;;16.03;74.00;100548.13;5031224;28;20112;-44
2022/08/20 07:54:06;;;;;;;10.35;2.13;;;;;;;16.00;74.14;100541.34;5028061;28;20106;-45
2022/08/20 07:56:33;;;;;;;14.27;2.67;;;;;;;15.98;74.05;100566.06;5031476;28;20049;-42
2022/08/20 07:59:02;;;;;;;13.65;3.30;;;;;;;15.98;74.28;100542.91;5030360;28;20037;-45
2022/08/20 08:01:30;;;;;;;10.30;4.43;;;;;;;15.97;73.99;100539.31;5030001;28;20065;-43
2022/08/20 08:03:58;;;;;;;8.73;2.72;;;;;;;16.00;74.15;100549.72;5031347;28;20095;-44
2022/08/20 08:06:26;;;;;;;15.77;2.90;;;;;;;16.12;74.27;100543.03;5031527;28;20049;-44
2022/08/20 08:09:08;;;;;;;10.10;2.90;;;;;;;16.34;74.37;100553.97;5031504;28;20145;-42
2022/08/20 08:11:38;;;;;;;11.15;2.88;;;;;;;16.59;74.14;100550.56;5029311;28;20049;-42
2022/08/20 08:14:08;;;;;;;13.13;3.28;;;;;;;16.87;74.42;100548.72;5030702;28;20045;-46
2022/08/20 08:16:36;;;;;;;11.75;3.15;;;;;;;17.21;74.45;100554.84;5031315;28;20080;-42
2022/08/20 08:19:07;;;;;;;10.88;2.55;;;;;;;17.53;73.33;100558.56;5030787;28;20053;-43
2022/08/20 08:21:35;;;;;;;13.55;3.08;;;;;;;17.78;72.21;100553.00;5029941;28;20057;-43
2022/08/20 08:24:02;;;;;;;10.93;2.60;;;;;;;17.99;71.88;100558.63;5030675;28;20049;-48
2022/08/20 08:26:29;;;;;;;6.78;2.33;;;;;;;18.16;71.22;100538.19;5031247;28;20037;-44
2022/08/20 08:28:57;;;;;;;11.05;2.38;;;;;;;18.55;71.35;100548.59;5026943;28;20091;-43
2022/08/20 08:31:24;;;;;;;14.45;3.60;;;;;;;18.88;69.86;100555.72;5029690;28;20064;-44
2022/08/20 08:33:51;;;;;;;9.93;3.00;;;;;;;18.96;68.08;100552.47;5030715;28;20499;-43
2022/08/20 08:36:18;;;;;;;10.70;3.15;;;;;;;18.97;67.43;100540.03;5030684;28;20052;-45
2022/08/20 08:38:45;;;;;;;7.45;2.85;;;;;;;19.33;66.95;100555.50;5030454;28;20446;-44
2022/08/20 08:41:19;;;;;;;7.45;2.40;;;;;;;19.94;65.34;100551.13;5022644;28;20073;-44
2022/08/20 08:43:48;;;;;;;9.93;2.47;;;;;;;20.83;63.48;100556.72;5021184;28;20105;-42
2022/08/20 08:46:21;;;;;;;7.47;2.55;;;;;;;21.43;61.13;100550.34;5021676;28;20046;-43
2022/08/20 08:48:52;;;;;;;10.57;3.30;;;;;;;21.89;59.24;100565.81;5024017;28;20049;-45
2022/08/20 08:51:57;;;;;;;12.83;3.67;;;;;;;22.41;58.04;100555.66;5026466;28;20104;-44
2022/08/20 08:54:28;;;;;;;9.57;2.65;;;;;;;22.62;56.47;100562.94;4998105;28;20058;-45
2022/08/20 08:56:56;;;;;;;7.78;3.03;;;;;;;22.61;55.86;100567.78;5022658;28;20045;-46
2022/08/20 08:59:28;;;;;;;11.18;3.40;;;;;;;22.81;54.94;100559.38;5024757;28;20103;-44
2022/08/20 09:02:21;;;;;;;13.15;2.80;;;;;;;22.79;54.03;100554.19;5023671;28;20068;-45
2022/08/20 09:04:50;;;;;;;10.13;3.47;;;;;;;22.93;53.48;100558.72;5024385;28;20045;-46
2022/08/20 09:07:17;;;;;;;13.82;3.35;;;;;;;22.63;53.13;100547.63;5028363;28;20080;-44
2022/08/20 09:09:45;;;;;;;7.90;2.65;;;;;;;22.58;53.64;100539.66;5021181;28;20450;-43
2022/08/20 09:12:17;;;;;;;11.82;3.00;;;;;;;22.62;52.85;100543.19;5024111;28;20045;-44
2022/08/20 09:14:46;;;;;;;10.88;2.70;;;;;;;22.71;52.80;100549.09;5025357;28;20049;-44
2022/08/20 09:17:15;;;;;;;10.13;3.10;;;;;;;22.52;52.53;100539.34;5019572;28;20057;-44
2022/08/20 09:19:41;;;;;;;7.32;2.28;;;;;;;22.52;53.24;100530.06;5025653;28;20041;-46
2022/08/20 09:22:10;;;;;;;11.75;3.45;;;;;;;23.32;51.80;100536.13;5022405;28;20041;-44
2022/08/20 09:24:38;;;;;;;11.30;2.83;;;;;;;23.19;50.68;100552.16;5013390;28;20112;-43
2022/08/20 09:27:07;;;;;;;7.75;2.58;;;;;;;22.47;51.50;100541.88;5017229;28;20445;-46
2022/08/20 09:29:35;;;;;;;7.82;2.45;;;;;;;22.34;52.54;100541.69;5013858;28;20099;-44
2022/08/20 09:32:07;;;;;;;8.02;3.15;;;;;;;22.33;51.76;100542.91;5024729;28;20045;-43
2022/08/20 09:34:36;;;;;;;10.50;2.20;;;;;;;21.99;52.34;100542.28;5027245;28;20065;-47
2022/08/20 09:37:04;;;;;;;16.05;3.60;;;;;;;21.63;52.53;100531.53;5022276;28;20392;-45
2022/08/20 09:39:31;;;;;;;11.38;2.92;;;;;;;21.59;53.29;100549.72;5020491;28;20475;-44
2022/08/20 09:42:15;;;;;;;10.27;2.70;;;;;;;21.59;53.15;100535.63;5025684;28;20418;-42
2022/08/20 09:44:43;;;;;;;9.23;2.45;;;;;;;21.35;53.04;100542.41;5024115;28;20048;-43
2022/08/20 09:47:10;;;;;;;7.75;2.22;;;;;;;21.18;53.28;100538.66;5022289;28;20045;-43
2022/08/20 09:49:38;;;;;;;8.60;2.60;;;;;;;21.07;53.66;100527.53;5022155;28;20041;-43
2022/08/20 09:52:09;;;;;;;10.15;3.15;;;;;;;21.07;53.23;100533.16;5025979;28;20561;-43
2022/08/20 09:54:38;;;;;;;7.10;2.72;;;;;;;20.91;53.86;100518.84;5021861;28;20428;-43
2022/08/20 09:57:13;;;;;;;6.80;2.25;;;;;;;20.67;54.32;100527.56;5020732;28;20062;-43
2022/08/20 09:59:40;;;;;;;9.70;2.20;;;;;;;20.48;54.51;100515.72;5021309;28;20060;-43
2022/08/20 10:02:07;;;;;;;8.48;2.58;;;;;;;20.26;54.67;100527.59;5018512;28;20045;-43
2022/08/20 10:04:34;;;;;;;6.30;2.25;;;;;;;20.02;55.12;100516.13;5026306;28;20507;-48
2022/08/20 10:07:06;;;;;;;10.82;3.20;;;;;;;19.87;55.56;100523.09;5023511;28;20451;-43
2022/08/20 10:09:34;;;;;;;5.63;2.33;;;;;;;19.99;55.91;100525.38;5025614;28;20578;-44
2022/08/20 10:12:02;;;;;;;8.15;2.35;;;;;;;19.99;55.54;100530.19;5023689;28;20033;-50
2022/08/20 10:14:30;;;;;;;8.63;2.30;;;;;;;20.17;55.62;100530.06;5025583;28;20049;-46
2022/08/20 10:16:59;;;;;;;7.97;2.38;;;;;;;20.26;55.06;100528.38;5023560;28;20132;-45
2022/08/20 10:19:27;;;;;;;9.05;2.55;;;;;;;20.57;55.15;100515.22;5021356;28;20053;-45
2022/08/20 10:21:54;;;;;;;8.50;2.92;;;;;;;21.69;53.49;100529.03;5021306;28;20561;-40
2022/08/20 10:24:21;;;;;;;7.22;2.60;;;;;;;22.04;51.99;100536.16;5024351;28;20545;-42
2022/08/20 10:26:49;;;;;;;9.10;2.20;;;;;;;21.73;51.77;100524.16;5018206;28;20032;-43
2022/08/20 10:29:16;;;;;;;9.85;2.47;;;;;;;21.50;52.32;100524.13;5025389;28;20049;-45
2022/08/20 10:31:42;;;;;;;7.30;2.42;;;;;;;21.20;52.93;100531.38;5017207;28;20483;-44
2022/08/20 10:34:09;;;;;;;4.93;2.00;;;;;;;21.03;52.97;100523.91;5024154;28;20482;-42
2022/08/20 10:36:36;;;;;;;7.85;1.88;;;;;;;20.82;53.58;100523.38;5022638;28;20042;-44
2022/08/20 10:39:03;;;;;;;13.50;2.92;;;;;;;20.63;53.97;100534.03;5019938;28;20495;-42
2022/08/20 10:41:30;;;;;;;6.93;2.22;;;;;;;20.44;54.04;100509.31;5019252;28;20096;-48
2022/08/20 10:43:57;;;;;;;10.05;2.53;;;;;;;20.30;54.21;100528.38;5023632;28;20084;-46
2022/08/20 10:46:24;;;;;;;7.97;3.72;;;;;;;20.54;54.21;100521.69;5021724;28;20073;-42
2022/08/20 10:48:51;;;;;;;6.65;2.25;;;;;;;21.05;53.17;100515.84;5019911;28;20511;-43
2022/08/20 10:51:17;;;;;;;7.72;2.25;;;;;;;21.12;53.33;100504.53;5019063;28;20049;-43
2022/08/20 10:53:46;;;;;;;5.32;1.88;;;;;;;21.72;52.18;100497.19;5021576;28;20071;-48
2022/08/20 10:56:13;;;;;;;10.80;2.80;;;;;;;22.26;51.23;100493.09;5027048;28;20549;-41
2022/08/20 10:58:41;;;;;;;6.50;1.95;;;;;;;22.11;51.00;100502.19;5021697;28;20384;-43
2022/08/20 11:01:10;;;;;;;9.73;2.78;;;;;;;21.72;50.96;100523.38;5020525;28;20072;-43
2022/08/20 11:03:37;;;;;;;5.38;1.90;;;;;;;21.40;51.33;100519.41;5022282;28;20104;-44
2022/08/20 11:06:05;;;;;;;7.28;2.08;;;;;;;21.28;52.07;100503.09;5027872;28;20507;-43
2022/08/20 11:08:32;;;;;;;5.85;2.15;;;;;;;21.48;51.88;100507.63;5027196;28;20407;-45
2022/08/20 11:11:03;;;;;;;8.07;2.50;;;;;;;21.61;51.26;100505.00;5029163;28;20033;-49
2022/08/20 11:13:30;;;;;;;9.18;2.10;;;;;;;21.42;51.24;100508.53;5029014;28;20099;-43
2022/08/20 11:15:56;;;;;;;8.00;2.40;;;;;;;21.17;51.89;100498.44;5029012;28;20046;-45
2022/08/20 11:18:23;;;;;;;7.82;2.25;;;;;;;21.05;51.81;100518.66;5017960;28;20116;-45
2022/08/20 11:20:51;;;;;;;9.60;2.63;;;;;;;21.12;52.02;100515.78;5026085;28;20471;-49
2022/08/20 11:23:18;;;;;;;6.47;2.40;;;;;;;21.32;51.42;100501.03;5028354;28;20459;-43
2022/08/20 11:25:45;;;;;;;11.55;2.47;;;;;;;21.59;51.61;100502.63;5026813;28;20049;-42
2022/08/20 11:28:11;;;;;;;6.57;1.90;;;;;;;21.77;50.97;100499.53;5026206;28;20144;-41
2022/08/20 11:30:38;;;;;;;7.93;2.25;;;;;;;21.73;50.58;100504.44;5028384;28;20045;-44
2022/08/20 11:33:06;;;;;;;7.55;2.00;;;;;;;21.65;50.47;100500.94;5027399;28;20513;-43
2022/08/20 11:35:35;;;;;;;5.90;1.83;;;;;;;21.52;50.26;100496.31;5019485;28;20052;-42
2022/08/20 11:38:15;;;;;;;6.85;1.80;;;;;;;21.45;50.64;100496.41;5029909;28;20511;-41
2022/08/20 11:40:42;;;;;;;5.10;1.77;;;;;;;21.60;50.21;100492.16;5031263;28;20037;-47
2022/08/20 11:43:09;;;;;;;4.38;1.70;;;;;;;21.67;49.97;100492.84;5031440;28;20049;-45
2022/08/20 11:45:46;;;;;;;3.97;1.70;;;;;;;21.63;49.72;100491.31;5031706;28;20049;-43